Time,TemperatureF,DewpointF,PressureIn,WindDirection,WindDirectionDegrees,WindSpeedMPH,WindSpeedGustMPH,Humidity,HourlyPrecipIn,Conditions,Clouds,dailyrainin,SoftwareType,DateUTC
2013-03-29 00:10:00,49.1,48.0,30.04,SE,124,0.0,-999.0,94,-99.99,,,0.00,weatherlink.com 1.10,2013-03-29 07:10:00,
2013-03-29 00:26:00,49.7,48.0,30.04,SE,124,0.0,-999.0,94,-99.99,,,0.00,weatherlink.com 1.10,2013-03-29 07:26:00,
2013-03-29 00:41:00,50.1,48.0,30.03,SE,128,0.0,-999.0,93,-99.99,,,0.00,weatherlink.com 1.10,2013-03-29 07:41:00,
2013-03-29 00:55:00,50.1,49.0,30.03,SE,128,0.0,-999.0,94,-99.99,,,0.00,weatherlink.com 1.10,2013-03-29 07:55:00,
2013-03-29 01:10:00,50.1,49.0,30.03,SE,128,1.0,-999.0,94,-99.99,,,0.00,weatherlink.com 1.10,2013-03-29 08:10:00,
2013-03-29 01:25:00,50.1,49.0,30.03,SE,128,0.0,-999.0,94,-99.99,,,0.00,weatherlink.com 1.10,2013-03-29 08:25:00,
2013-03-29 01:56:00,49.8,48.0,30.03,ESE,109,0.0,-999.0,94,-99.99,,,0.00,weatherlink.com 1.10,2013-03-29 08:56:00,
2013-03-29 02:10:00,49.7,48.0,30.03,ESE,102,1.0,-999.0,94,-99.99,,,0.00,weatherlink.com 1.10,2013-03-29 09:10:00,
2013-03-29 02:25:00,49.7,48.0,30.02,ESE,102,0.0,-999.0,94,-99.99,,,0.00,weatherlink.com 1.10,2013-03-29 09:25:00,
2013-03-29 02:41:00,49.6,48.0,30.02,NNE,24,3.0,-999.0,94,-99.99,,,0.00,weatherlink.com 1.10,2013-03-29 09:41:00,
2013-03-29 02:55:00,49.5,48.0,30.03,NNE,24,2.0,-999.0,94,-99.99,,,0.00,weatherlink.com 1.10,2013-03-29 09:55:00,
2013-03-29 03:10:00,49.4,48.0,30.02,NE,41,1.0,-999.0,94,-99.99,,,0.00,weatherlink.com 1.10,2013-03-29 10:10:00,
2013-03-29 03:26:00,49.2,48.0,30.02,NE,41,2.0,-999.0,94,-99.99,,,0.00,weatherlink.com 1.10,2013-03-29 10:26:00,
2013-03-29 03:40:00,49.1,48.0,30.02,NE,41,2.0,-999.0,94,-99.99,,,0.00,weatherlink.com 1.10,2013-03-29 10:40:00,
2013-03-29 04:10:00,48.8,47.0,30.02,NE,55,3.0,-999.0,94,-99.99,,,0.00,weatherlink.com 1.10,2013-03-29 11:10:00,
2013-03-29 04:26:00,48.6,47.0,30.02,NE,50,3.0,-999.0,94,-99.99,,,0.00,weatherlink.com 1.10,2013-03-29 11:26:00,
2013-03-29 04:41:00,48.5,47.0,30.02,NE,42,2.0,-999.0,94,-99.99,,,0.00,weatherlink.com 1.10,2013-03-29 11:41:00,
2013-03-29 04:55:00,48.2,47.0,30.02,NE,45,2.0,-999.0,94,-99.99,,,0.00,weatherlink.com 1.10,2013-03-29 11:55:00,
2013-03-29 05:25:00,47.9,46.0,30.02,NE,45,2.0,-999.0,94,-99.99,,,0.00,weatherlink.com 1.10,2013-03-29 12:25:00,
2013-03-29 05:40:00,48.1,47.0,30.02,North,350,3.0,-999.0,95,-99.99,,,0.00,weatherlink.com 1.10,2013-03-29 12:40:00,
2013-03-29 05:55:00,48.1,47.0,30.02,NNE,15,2.0,-999.0,95,-99.99,,,0.00,weatherlink.com 1.10,2013-03-29 12:55:00,
2013-03-29 06:10:00,47.9,46.0,30.02,North,351,2.0,-999.0,94,-99.99,,,0.00,weatherlink.com 1.10,2013-03-29 13:10:00,
2013-03-29 06:25:00,47.8,46.0,30.02,North,355,2.0,-999.0,94,-99.99,,,0.00,weatherlink.com 1.10,2013-03-29 13:25:00,
2013-03-29 06:41:00,47.6,46.0,30.02,NE,46,1.0,-999.0,95,-99.99,,,0.00,weatherlink.com 1.10,2013-03-29 13:41:00,
2013-03-29 06:55:00,47.5,46.0,30.02,NE,46,1.0,-999.0,95,-99.99,,,0.00,weatherlink.com 1.10,2013-03-29 13:55:00,
2013-03-29 07:11:00,47.5,46.0,30.03,NE,46,3.0,-999.0,95,-99.99,,,0.00,weatherlink.com 1.10,2013-03-29 14:11:00,
2013-03-29 07:25:00,47.6,46.0,30.03,NE,46,0.0,-999.0,95,-99.99,,,0.00,weatherlink.com 1.10,2013-03-29 14:25:00,
2013-03-29 07:40:00,47.8,47.0,30.03,NNE,30,1.0,-999.0,95,-99.99,,,0.00,weatherlink.com 1.10,2013-03-29 14:40:00,
2013-03-29 07:56:00,48.0,47.0,30.03,NNE,30,0.0,-999.0,95,-99.99,,,0.00,weatherlink.com 1.10,2013-03-29 14:56:00,
2013-03-29 08:11:00,48.3,47.0,30.03,NNE,30,1.0,-999.0,95,-99.99,,,0.00,weatherlink.com 1.10,2013-03-29 15:11:00,
2013-03-29 08:40:00,48.7,47.0,30.03,NNE,30,0.0,-999.0,95,-99.99,,,0.00,weatherlink.com 1.10,2013-03-29 15:40:00,
2013-03-29 08:56:00,48.6,47.0,30.04,SW,223,2.0,-999.0,95,-99.99,,,0.00,weatherlink.com 1.10,2013-03-29 15:56:00,
2013-03-29 09:10:00,48.7,47.0,30.04,SSW,199,2.0,-999.0,95,-99.99,,,0.00,weatherlink.com 1.10,2013-03-29 16:10:00,
2013-03-29 09:26:00,49.7,49.0,30.03,South,188,0.0,-999.0,96,-99.99,,,0.00,weatherlink.com 1.10,2013-03-29 16:26:00,
2013-03-29 09:41:00,50.1,49.0,30.03,SSW,196,0.0,-999.0,95,-99.99,,,0.00,weatherlink.com 1.10,2013-03-29 16:41:00,
2013-03-29 09:55:00,50.5,49.0,30.03,SSW,196,0.0,-999.0,95,-99.99,,,0.00,weatherlink.com 1.10,2013-03-29 16:55:00,
2013-03-29 10:11:00,50.4,49.0,30.02,SW,219,1.0,-999.0,95,-99.99,,,0.00,weatherlink.com 1.10,2013-03-29 17:11:00,
2013-03-29 10:41:00,51.4,50.0,30.02,SSW,200,1.0,-999.0,95,-99.99,,,0.00,weatherlink.com 1.10,2013-03-29 17:41:00,
2013-03-29 10:55:00,51.2,50.0,30.02,SW,221,2.0,-999.0,94,-99.99,,,0.00,weatherlink.com 1.10,2013-03-29 17:55:00,
2013-03-29 11:10:00,51.7,50.0,30.02,SW,221,2.0,-999.0,95,-99.99,,,0.00,weatherlink.com 1.10,2013-03-29 18:10:00,
2013-03-29 11:26:00,52.8,51.0,30.02,SW,221,2.0,-999.0,93,-99.99,,,0.00,weatherlink.com 1.10,2013-03-29 18:26:00,
2013-03-29 11:40:00,52.3,50.0,30.02,WSW,239,1.0,-999.0,92,-99.99,,,0.00,weatherlink.com 1.10,2013-03-29 18:40:00,
2013-03-29 11:55:00,52.6,50.0,30.02,WSW,244,2.0,-999.0,92,-99.99,,,0.00,weatherlink.com 1.10,2013-03-29 18:55:00,
2013-03-29 12:11:00,52.4,50.0,30.02,NNW,330,2.0,-999.0,91,-99.99,,,0.00,weatherlink.com 1.10,2013-03-29 19:11:00,
2013-03-29 12:25:00,53.5,51.0,30.02,West,281,4.0,-999.0,90,-99.99,,,0.00,weatherlink.com 1.10,2013-03-29 19:25:00,
2013-03-29 12:40:00,53.6,51.0,30.02,NW,305,3.0,-999.0,90,-99.99,,,0.00,weatherlink.com 1.10,2013-03-29 19:40:00,
2013-03-29 12:56:00,53.9,51.0,30.02,NNW,348,4.0,-999.0,88,-99.99,,,0.00,weatherlink.com 1.10,2013-03-29 19:56:00,
2013-03-29 13:11:00,52.8,50.0,30.02,NW,322,1.0,-999.0,89,-99.99,,,0.00,weatherlink.com 1.10,2013-03-29 20:11:00,
2013-03-29 13:26:00,54.3,52.0,30.02,West,278,4.0,-999.0,91,-99.99,,,0.00,weatherlink.com 1.10,2013-03-29 20:26:00,
2013-03-29 13:40:00,52.0,49.0,30.01,NW,305,4.0,-999.0,90,-99.99,,,0.00,weatherlink.com 1.10,2013-03-29 20:40:00,
2013-03-29 13:56:00,53.2,50.0,30.01,WNW,294,2.0,-999.0,89,-99.99,,,0.00,weatherlink.com 1.10,2013-03-29 20:56:00,
2013-03-29 14:10:00,54.3,51.0,30.00,NNW,337,7.0,-999.0,89,-99.99,,,0.00,weatherlink.com 1.10,2013-03-29 21:10:00,
2013-03-29 14:26:00,54.5,51.0,30.00,WNW,290,2.0,-999.0,88,-99.99,,,0.00,weatherlink.com 1.10,2013-03-29 21:26:00,
2013-03-29 14:41:00,54.3,51.0,30.00,WNW,293,5.0,-999.0,88,-99.99,,,0.00,weatherlink.com 1.10,2013-03-29 21:41:00,
2013-03-29 14:56:00,53.1,50.0,30.00,NW,323,4.0,-999.0,88,-99.99,,,0.00,weatherlink.com 1.10,2013-03-29 21:56:00,
2013-03-29 15:11:00,51.1,49.0,30.00,WNW,300,3.0,-999.0,91,-99.99,,,0.00,weatherlink.com 1.10,2013-03-29 22:11:00,
2013-03-29 15:25:00,53.9,52.0,30.00,WNW,286,3.0,-999.0,92,-99.99,,,0.00,weatherlink.com 1.10,2013-03-29 22:25:00,
2013-03-29 15:40:00,55.3,52.0,30.00,NW,311,3.0,-999.0,87,-99.99,,,0.00,weatherlink.com 1.10,2013-03-29 22:40:00,
2013-03-29 15:56:00,55.4,51.0,30.00,WNW,284,4.0,-999.0,86,-99.99,,,0.00,weatherlink.com 1.10,2013-03-29 22:56:00,
2013-03-29 16:10:00,53.5,50.0,30.01,WNW,294,2.0,-999.0,89,-99.99,,,0.00,weatherlink.com 1.10,2013-03-29 23:10:00,
2013-03-29 16:26:00,52.1,49.0,30.01,WNW,294,4.0,-999.0,88,-99.99,,,0.00,weatherlink.com 1.10,2013-03-29 23:26:00,
2013-03-29 16:41:00,52.0,50.0,30.00,NW,316,5.0,-999.0,92,-99.99,,,0.00,weatherlink.com 1.10,2013-03-29 23:41:00,
2013-03-29 17:10:00,53.4,50.0,29.99,WNW,303,5.0,-999.0,89,-99.99,,,0.00,weatherlink.com 1.10,2013-03-30 00:10:00,
2013-03-29 17:26:00,53.2,50.0,29.98,North,355,3.0,-999.0,90,-99.99,,,0.00,weatherlink.com 1.10,2013-03-30 00:26:00,
2013-03-29 17:40:00,54.4,51.0,29.99,NNE,13,0.0,-999.0,87,-99.99,,,0.00,weatherlink.com 1.10,2013-03-30 00:40:00,
2013-03-29 17:56:00,52.7,49.0,29.99,NNW,332,4.0,-999.0,87,-99.99,,,0.00,weatherlink.com 1.10,2013-03-30 00:56:00,
2013-03-29 18:11:00,52.6,49.0,29.99,NW,315,0.0,-999.0,88,-99.99,,,0.00,weatherlink.com 1.10,2013-03-30 01:11:00,
2013-03-29 18:25:00,52.7,49.0,29.99,NW,307,0.0,-999.0,88,-99.99,,,0.00,weatherlink.com 1.10,2013-03-30 01:25:00,
2013-03-29 18:41:00,52.9,50.0,29.98,NW,308,1.0,-999.0,88,-99.99,,,0.00,weatherlink.com 1.10,2013-03-30 01:41:00,
2013-03-29 19:10:00,51.4,48.0,29.97,WNW,292,0.0,-999.0,88,-99.99,,,0.00,weatherlink.com 1.10,2013-03-30 02:10:00,
2013-03-29 19:25:00,50.8,48.0,29.98,WNW,292,1.0,-999.0,89,-99.99,,,0.00,weatherlink.com 1.10,2013-03-30 02:25:00,
2013-03-29 19:55:00,49.7,47.0,29.96,NNE,25,1.0,-999.0,90,-99.99,,,0.00,weatherlink.com 1.10,2013-03-30 02:55:00,
2013-03-29 20:10:00,49.4,47.0,29.95,NE,37,3.0,-999.0,90,-99.99,,,0.00,weatherlink.com 1.10,2013-03-30 03:10:00,
2013-03-29 20:26:00,49.9,47.0,29.96,SE,136,1.0,-999.0,91,-99.99,,,0.00,weatherlink.com 1.10,2013-03-30 03:26:00,
2013-03-29 20:40:00,50.4,48.0,29.96,SE,134,2.0,-999.0,92,-99.99,,,0.00,weatherlink.com 1.10,2013-03-30 03:40:00,
2013-03-29 20:56:00,51.3,49.0,29.96,NE,55,4.0,-999.0,93,-99.99,,,0.00,weatherlink.com 1.10,2013-03-30 03:56:00,
2013-03-29 21:11:00,52.7,51.0,29.97,South,181,2.0,-999.0,92,-99.99,,,0.00,weatherlink.com 1.10,2013-03-30 04:11:00,
2013-03-29 21:26:00,52.4,51.0,29.97,ESE,117,2.0,-999.0,93,-99.99,,,0.00,weatherlink.com 1.10,2013-03-30 04:26:00,
2013-03-29 21:41:00,53.1,51.0,29.99,SSE,148,4.0,-999.0,93,-99.99,,,0.00,weatherlink.com 1.10,2013-03-30 04:41:00,
2013-03-29 21:55:00,54.4,52.0,29.99,NE,53,0.0,-999.0,91,-99.99,,,0.00,weatherlink.com 1.10,2013-03-30 04:55:00,
2013-03-29 22:10:00,54.6,52.0,29.99,NNE,24,4.0,-999.0,89,-99.99,,,0.00,weatherlink.com 1.10,2013-03-30 05:10:00,
2013-03-29 22:25:00,54.3,51.0,29.99,South,177,1.0,-999.0,89,-99.99,,,0.00,weatherlink.com 1.10,2013-03-30 05:25:00,
2013-03-29 22:41:00,54.5,51.0,30.00,WNW,291,0.0,-999.0,88,-99.99,,,0.00,weatherlink.com 1.10,2013-03-30 05:41:00,
2013-03-29 22:56:00,52.9,50.0,30.00,South,185,1.0,-999.0,88,-99.99,,,0.00,weatherlink.com 1.10,2013-03-30 05:56:00,
2013-03-29 23:10:00,52.5,50.0,30.01,SSE,164,1.0,-999.0,90,-99.99,,,0.00,weatherlink.com 1.10,2013-03-30 06:10:00,
2013-03-29 23:41:00,52.9,50.0,30.00,South,178,0.0,-999.0,90,-99.99,,,0.00,weatherlink.com 1.10,2013-03-30 06:41:00,
2013-03-29 23:55:00,52.2,49.0,30.00,SSW,206,5.0,-999.0,89,-99.99,,,0.00,weatherlink.com 1.10,2013-03-30 06:55:00,